sensor_id;sensor_type;location;lat;lon;timestamp;P1;durP1;ratioP1;P2;durP2;ratioP2
15385;SDS011;7791;47.246;9.648;2022-10-03T00:01:06;0.57;;;0.20;;
15385;SDS011;7791;47.246;9.648;2022-10-03T00:03:41;0.30;;;0.20;;
15385;SDS011;7791;47.246;9.648;2022-10-03T00:06:22;2.23;;;0.33;;
15385;SDS011;7791;47.246;9.648;2022-10-03T00:09:05;0.43;;;0.30;;
15385;SDS011;7791;47.246;9.648;2022-10-03T00:11:55;1.50;;;0.30;;
15385;SDS011;7791;47.246;9.648;2022-10-03T00:14:37;0.80;;;0.10;;
15385;SDS011;7791;47.246;9.648;2022-10-03T00:17:09;0.20;;;0.10;;
15385;SDS011;7791;47.246;9.648;2022-10-03T00:19:41;0.83;;;0.20;;
15385;SDS011;7791;47.246;9.648;2022-10-03T00:22:18;0.60;;;0.20;;
15385;SDS011;7791;47.246;9.648;2022-10-03T00:24:55;0.20;;;0.17;;
15385;SDS011;7791;47.246;9.648;2022-10-03T00:27:29;0.77;;;0.30;;
15385;SDS011;7791;47.246;9.648;2022-10-03T00:30:04;0.10;;;0.10;;
15385;SDS011;7791;47.246;9.648;2022-10-03T00:32:45;0.20;;;0.10;;
15385;SDS011;7791;47.246;9.648;2022-10-03T00:35:31;0.20;;;0.20;;
15385;SDS011;7791;47.246;9.648;2022-10-03T00:38:17;0.30;;;0.30;;
15385;SDS011;7791;47.246;9.648;2022-10-03T00:41:20;0.60;;;0.30;;
15385;SDS011;7791;47.246;9.648;2022-10-03T00:44:09;0.70;;;0.20;;
15385;SDS011;7791;47.246;9.648;2022-10-03T00:50:06;1.60;;;0.30;;
15385;SDS011;7791;47.246;9.648;2022-10-03T00:52:50;0.20;;;0.17;;
15385;SDS011;7791;47.246;9.648;2022-10-03T00:55:34;0.40;;;0.20;;
15385;SDS011;7791;47.246;9.648;2022-10-03T00:58:13;1.07;;;0.50;;
15385;SDS011;7791;47.246;9.648;2022-10-03T01:00:52;1.03;;;0.30;;
15385;SDS011;7791;47.246;9.648;2022-10-03T01:03:27;0.20;;;0.20;;
15385;SDS011;7791;47.246;9.648;2022-10-03T01:06:09;0.50;;;0.20;;
15385;SDS011;7791;47.246;9.648;2022-10-03T01:08:57;0.23;;;0.23;;
15385;SDS011;7791;47.246;9.648;2022-10-03T01:11:38;0.33;;;0.20;;
15385;SDS011;7791;47.246;9.648;2022-10-03T01:14:19;0.10;;;0.10;;
15385;SDS011;7791;47.246;9.648;2022-10-03T01:17:00;0.47;;;0.23;;
15385;SDS011;7791;47.246;9.648;2022-10-03T01:19:42;0.27;;;0.20;;
15385;SDS011;7791;47.246;9.648;2022-10-03T01:22:26;0.10;;;0.10;;
15385;SDS011;7791;47.246;9.648;2022-10-03T01:25:17;0.53;;;0.10;;
15385;SDS011;7791;47.246;9.648;2022-10-03T01:27:54;0.20;;;0.20;;
15385;SDS011;7791;47.246;9.648;2022-10-03T01:30:32;0.20;;;0.20;;
15385;SDS011;7791;47.246;9.648;2022-10-03T01:33:06;0.13;;;0.13;;
15385;SDS011;7791;47.246;9.648;2022-10-03T01:35:35;0.40;;;0.20;;
15385;SDS011;7791;47.246;9.648;2022-10-03T01:38:13;1.50;;;0.20;;
15385;SDS011;7791;47.246;9.648;2022-10-03T01:40:45;0.17;;;0.10;;
15385;SDS011;7791;47.246;9.648;2022-10-03T01:43:17;1.70;;;0.30;;
15385;SDS011;7791;47.246;9.648;2022-10-03T01:45:54;1.20;;;0.20;;
15385;SDS011;7791;47.246;9.648;2022-10-03T01:48:31;0.10;;;0.10;;
15385;SDS011;7791;47.246;9.648;2022-10-03T01:51:03;0.20;;;0.20;;
15385;SDS011;7791;47.246;9.648;2022-10-03T01:53:42;0.67;;;0.37;;
15385;SDS011;7791;47.246;9.648;2022-10-03T01:56:20;0.23;;;0.20;;
15385;SDS011;7791;47.246;9.648;2022-10-03T01:58:57;0.63;;;0.10;;
15385;SDS011;7791;47.246;9.648;2022-10-03T02:01:30;0.10;;;0.10;;
15385;SDS011;7791;47.246;9.648;2022-10-03T02:04:05;0.50;;;0.20;;
15385;SDS011;7791;47.246;9.648;2022-10-03T02:06:43;0.80;;;0.20;;
15385;SDS011;7791;47.246;9.648;2022-10-03T02:09:17;0.53;;;0.20;;
15385;SDS011;7791;47.246;9.648;2022-10-03T02:14:46;0.37;;;0.27;;
15385;SDS011;7791;47.246;9.648;2022-10-03T02:17:22;1.50;;;0.20;;
15385;SDS011;7791;47.246;9.648;2022-10-03T02:19:54;0.30;;;0.20;;
15385;SDS011;7791;47.246;9.648;2022-10-03T02:22:30;0.20;;;0.10;;
15385;SDS011;7791;47.246;9.648;2022-10-03T02:25:03;0.27;;;0.10;;
15385;SDS011;7791;47.246;9.648;2022-10-03T02:27:42;0.73;;;0.50;;
15385;SDS011;7791;47.246;9.648;2022-10-03T02:30:40;0.30;;;0.10;;
15385;SDS011;7791;47.246;9.648;2022-10-03T02:33:30;0.47;;;0.30;;
15385;SDS011;7791;47.246;9.648;2022-10-03T02:36:29;0.10;;;0.10;;
15385;SDS011;7791;47.246;9.648;2022-10-03T02:39:46;2.63;;;0.37;;
15385;SDS011;7791;47.246;9.648;2022-10-03T02:43:04;2.00;;;0.30;;
15385;SDS011;7791;47.246;9.648;2022-10-03T02:49:27;0.27;;;0.27;;
15385;SDS011;7791;47.246;9.648;2022-10-03T02:52:25;0.30;;;0.30;;
15385;SDS011;7791;47.246;9.648;2022-10-03T02:58:16;0.20;;;0.20;;
15385;SDS011;7791;47.246;9.648;2022-10-03T03:01:15;0.33;;;0.20;;
15385;SDS011;7791;47.246;9.648;2022-10-03T03:04:05;0.30;;;0.30;;
15385;SDS011;7791;47.246;9.648;2022-10-03T03:06:58;0.43;;;0.20;;
15385;SDS011;7791;47.246;9.648;2022-10-03T03:12:51;1.33;;;0.40;;
15385;SDS011;7791;47.246;9.648;2022-10-03T03:18:38;0.30;;;0.20;;
15385;SDS011;7791;47.246;9.648;2022-10-03T03:21:10;0.43;;;0.43;;
15385;SDS011;7791;47.246;9.648;2022-10-03T03:29:43;1.00;;;0.60;;
15385;SDS011;7791;47.246;9.648;2022-10-03T03:32:19;0.90;;;0.67;;
15385;SDS011;7791;47.246;9.648;2022-10-03T03:34:58;1.60;;;0.80;;
15385;SDS011;7791;47.246;9.648;2022-10-03T03:37:38;1.53;;;0.73;;
15385;SDS011;7791;47.246;9.648;2022-10-03T03:40:17;2.47;;;0.90;;
15385;SDS011;7791;47.246;9.648;2022-10-03T03:42:57;3.83;;;1.00;;
15385;SDS011;7791;47.246;9.648;2022-10-03T03:45:42;1.87;;;0.87;;
15385;SDS011;7791;47.246;9.648;2022-10-03T03:51:20;3.00;;;0.90;;
15385;SDS011;7791;47.246;9.648;2022-10-03T03:54:00;2.63;;;1.00;;
15385;SDS011;7791;47.246;9.648;2022-10-03T03:56:48;3.30;;;1.30;;
15385;SDS011;7791;47.246;9.648;2022-10-03T03:59:25;3.07;;;1.30;;
15385;SDS011;7791;47.246;9.648;2022-10-03T04:02:04;5.43;;;1.20;;
15385;SDS011;7791;47.246;9.648;2022-10-03T04:04:46;4.17;;;1.30;;
15385;SDS011;7791;47.246;9.648;2022-10-03T04:07:26;1.80;;;1.10;;
15385;SDS011;7791;47.246;9.648;2022-10-03T04:16:04;6.47;;;2.50;;
15385;SDS011;7791;47.246;9.648;2022-10-03T04:18:47;6.50;;;2.67;;
15385;SDS011;7791;47.246;9.648;2022-10-03T04:27:16;6.83;;;2.10;;
15385;SDS011;7791;47.246;9.648;2022-10-03T04:29:58;5.50;;;2.80;;
15385;SDS011;7791;47.246;9.648;2022-10-03T04:32:35;4.60;;;2.53;;
15385;SDS011;7791;47.246;9.648;2022-10-03T04:35:18;2.87;;;2.33;;
15385;SDS011;7791;47.246;9.648;2022-10-03T04:37:56;3.73;;;2.47;;
15385;SDS011;7791;47.246;9.648;2022-10-03T04:40:37;5.93;;;2.70;;
15385;SDS011;7791;47.246;9.648;2022-10-03T04:43:13;6.23;;;2.57;;
15385;SDS011;7791;47.246;9.648;2022-10-03T04:45:55;4.10;;;2.37;;
15385;SDS011;7791;47.246;9.648;2022-10-03T04:48:31;5.73;;;3.10;;
15385;SDS011;7791;47.246;9.648;2022-10-03T04:51:05;3.03;;;2.63;;
15385;SDS011;7791;47.246;9.648;2022-10-03T04:53:41;4.30;;;2.47;;
15385;SDS011;7791;47.246;9.648;2022-10-03T04:56:20;5.20;;;2.67;;
15385;SDS011;7791;47.246;9.648;2022-10-03T04:58:57;4.67;;;2.67;;
15385;SDS011;7791;47.246;9.648;2022-10-03T05:01:36;6.63;;;3.70;;
15385;SDS011;7791;47.246;9.648;2022-10-03T05:04:14;6.30;;;3.20;;
15385;SDS011;7791;47.246;9.648;2022-10-03T05:06:51;8.97;;;3.00;;
15385;SDS011;7791;47.246;9.648;2022-10-03T05:09:26;6.20;;;3.10;;
15385;SDS011;7791;47.246;9.648;2022-10-03T05:12:02;4.60;;;3.03;;
15385;SDS011;7791;47.246;9.648;2022-10-03T05:14:51;6.20;;;3.20;;
15385;SDS011;7791;47.246;9.648;2022-10-03T05:17:29;9.90;;;3.50;;
15385;SDS011;7791;47.246;9.648;2022-10-03T05:20:12;8.60;;;4.20;;
15385;SDS011;7791;47.246;9.648;2022-10-03T05:22:50;8.97;;;4.67;;
15385;SDS011;7791;47.246;9.648;2022-10-03T05:25:30;7.00;;;3.60;;
15385;SDS011;7791;47.246;9.648;2022-10-03T05:28:11;7.37;;;4.47;;
15385;SDS011;7791;47.246;9.648;2022-10-03T05:30:46;9.23;;;4.30;;
15385;SDS011;7791;47.246;9.648;2022-10-03T05:33:20;11.20;;;4.23;;
15385;SDS011;7791;47.246;9.648;2022-10-03T05:35:58;7.90;;;4.73;;
15385;SDS011;7791;47.246;9.648;2022-10-03T05:41:25;10.30;;;5.10;;
15385;SDS011;7791;47.246;9.648;2022-10-03T05:43:56;6.93;;;4.23;;
15385;SDS011;7791;47.246;9.648;2022-10-03T05:46:38;5.60;;;4.47;;
15385;SDS011;7791;47.246;9.648;2022-10-03T05:49:24;9.63;;;4.90;;
15385;SDS011;7791;47.246;9.648;2022-10-03T05:52:07;9.47;;;5.60;;
15385;SDS011;7791;47.246;9.648;2022-10-03T05:55:00;9.20;;;5.40;;
15385;SDS011;7791;47.246;9.648;2022-10-03T06:00:37;7.43;;;4.47;;
15385;SDS011;7791;47.246;9.648;2022-10-03T06:03:31;6.07;;;4.70;;
15385;SDS011;7791;47.246;9.648;2022-10-03T06:06:18;5.73;;;4.70;;
15385;SDS011;7791;47.246;9.648;2022-10-03T06:08:59;10.17;;;4.70;;
15385;SDS011;7791;47.246;9.648;2022-10-03T06:11:55;8.07;;;4.60;;
15385;SDS011;7791;47.246;9.648;2022-10-03T06:14:35;6.30;;;4.40;;
15385;SDS011;7791;47.246;9.648;2022-10-03T06:20:31;6.77;;;4.47;;
15385;SDS011;7791;47.246;9.648;2022-10-03T06:23:40;9.13;;;4.50;;
15385;SDS011;7791;47.246;9.648;2022-10-03T06:26:30;6.20;;;4.47;;
15385;SDS011;7791;47.246;9.648;2022-10-03T06:32:44;8.43;;;4.90;;
15385;SDS011;7791;47.246;9.648;2022-10-03T06:35:46;8.00;;;5.23;;
15385;SDS011;7791;47.246;9.648;2022-10-03T06:42:13;7.73;;;5.23;;
15385;SDS011;7791;47.246;9.648;2022-10-03T06:44:57;7.33;;;5.23;;
15385;SDS011;7791;47.246;9.648;2022-10-03T06:47:50;7.63;;;5.27;;
15385;SDS011;7791;47.246;9.648;2022-10-03T06:50:40;7.10;;;4.80;;
15385;SDS011;7791;47.246;9.648;2022-10-03T06:53:20;8.90;;;5.40;;
15385;SDS011;7791;47.246;9.648;2022-10-03T06:59:23;5.93;;;4.40;;
15385;SDS011;7791;47.246;9.648;2022-10-03T07:11:12;6.30;;;3.50;;
15385;SDS011;7791;47.246;9.648;2022-10-03T07:17:25;5.90;;;3.30;;
15385;SDS011;7791;47.246;9.648;2022-10-03T07:20:14;7.23;;;3.67;;
15385;SDS011;7791;47.246;9.648;2022-10-03T07:23:17;6.40;;;3.43;;
15385;SDS011;7791;47.246;9.648;2022-10-03T07:26:26;5.97;;;3.33;;
15385;SDS011;7791;47.246;9.648;2022-10-03T07:29:17;4.97;;;2.87;;
15385;SDS011;7791;47.246;9.648;2022-10-03T07:35:06;3.57;;;2.63;;
15385;SDS011;7791;47.246;9.648;2022-10-03T07:38:11;4.67;;;3.00;;
15385;SDS011;7791;47.246;9.648;2022-10-03T07:41:19;5.37;;;3.17;;
15385;SDS011;7791;47.246;9.648;2022-10-03T07:44:00;3.87;;;2.70;;
15385;SDS011;7791;47.246;9.648;2022-10-03T07:49:50;3.60;;;2.53;;
15385;SDS011;7791;47.246;9.648;2022-10-03T07:52:40;3.57;;;2.90;;
15385;SDS011;7791;47.246;9.648;2022-10-03T07:55:21;4.50;;;2.80;;
15385;SDS011;7791;47.246;9.648;2022-10-03T07:58:09;4.10;;;3.20;;
15385;SDS011;7791;47.246;9.648;2022-10-03T08:01:05;6.53;;;3.37;;
15385;SDS011;7791;47.246;9.648;2022-10-03T08:04:01;7.00;;;3.40;;
15385;SDS011;7791;47.246;9.648;2022-10-03T08:06:59;6.63;;;3.40;;
15385;SDS011;7791;47.246;9.648;2022-10-03T08:09:49;5.57;;;3.20;;
15385;SDS011;7791;47.246;9.648;2022-10-03T08:12:32;5.17;;;3.60;;
15385;SDS011;7791;47.246;9.648;2022-10-03T08:15:23;4.57;;;3.23;;
15385;SDS011;7791;47.246;9.648;2022-10-03T08:21:17;6.67;;;3.20;;
15385;SDS011;7791;47.246;9.648;2022-10-03T08:26:54;3.77;;;3.07;;
15385;SDS011;7791;47.246;9.648;2022-10-03T08:32:45;5.07;;;3.13;;
15385;SDS011;7791;47.246;9.648;2022-10-03T08:35:47;4.87;;;2.97;;
15385;SDS011;7791;47.246;9.648;2022-10-03T08:51:04;2.80;;;2.10;;
15385;SDS011;7791;47.246;9.648;2022-10-03T08:54:06;4.23;;;2.57;;
15385;SDS011;7791;47.246;9.648;2022-10-03T08:57:08;3.50;;;2.30;;
15385;SDS011;7791;47.246;9.648;2022-10-03T09:18:02;6.77;;;2.23;;
15385;SDS011;7791;47.246;9.648;2022-10-03T09:48:08;2.67;;;1.60;;
15385;SDS011;7791;47.246;9.648;2022-10-03T09:51:04;2.97;;;1.67;;
15385;SDS011;7791;47.246;9.648;2022-10-03T09:53:53;2.07;;;1.60;;
15385;SDS011;7791;47.246;9.648;2022-10-03T10:00:07;2.73;;;1.60;;
15385;SDS011;7791;47.246;9.648;2022-10-03T10:03:09;3.87;;;1.60;;
15385;SDS011;7791;47.246;9.648;2022-10-03T10:06:09;1.30;;;1.10;;
15385;SDS011;7791;47.246;9.648;2022-10-03T10:09:09;2.47;;;1.30;;
15385;SDS011;7791;47.246;9.648;2022-10-03T10:45:14;1.75;;;1.10;;
15385;SDS011;7791;47.246;9.648;2022-10-03T10:54:17;1.13;;;0.60;;
15385;SDS011;7791;47.246;9.648;2022-10-03T10:57:05;1.15;;;0.60;;
15385;SDS011;7791;47.246;9.648;2022-10-03T11:00:00;1.87;;;0.53;;
15385;SDS011;7791;47.246;9.648;2022-10-03T11:25:03;2.43;;;1.20;;
15385;SDS011;7791;47.246;9.648;2022-10-03T11:31:17;2.70;;;1.10;;
15385;SDS011;7791;47.246;9.648;2022-10-03T11:37:43;1.97;;;1.50;;
15385;SDS011;7791;47.246;9.648;2022-10-03T11:40:24;1.80;;;0.90;;
15385;SDS011;7791;47.246;9.648;2022-10-03T11:43:02;2.43;;;1.00;;
15385;SDS011;7791;47.246;9.648;2022-10-03T11:45:48;1.50;;;0.90;;
15385;SDS011;7791;47.246;9.648;2022-10-03T11:48:23;1.67;;;0.90;;
15385;SDS011;7791;47.246;9.648;2022-10-03T11:51:01;1.60;;;0.93;;
15385;SDS011;7791;47.246;9.648;2022-10-03T11:53:41;2.93;;;0.80;;
15385;SDS011;7791;47.246;9.648;2022-10-03T11:56:16;0.87;;;0.80;;
15385;SDS011;7791;47.246;9.648;2022-10-03T12:01:50;2.83;;;0.80;;
15385;SDS011;7791;47.246;9.648;2022-10-03T12:04:30;2.77;;;0.70;;
15385;SDS011;7791;47.246;9.648;2022-10-03T12:07:09;3.07;;;0.93;;
15385;SDS011;7791;47.246;9.648;2022-10-03T12:09:54;2.80;;;1.10;;
15385;SDS011;7791;47.246;9.648;2022-10-03T12:12:29;1.43;;;0.90;;
15385;SDS011;7791;47.246;9.648;2022-10-03T12:15:03;2.17;;;0.90;;
15385;SDS011;7791;47.246;9.648;2022-10-03T12:17:54;2.03;;;1.10;;
15385;SDS011;7791;47.246;9.648;2022-10-03T12:20:29;2.67;;;1.10;;
15385;SDS011;7791;47.246;9.648;2022-10-03T12:23:03;2.50;;;1.10;;
15385;SDS011;7791;47.246;9.648;2022-10-03T12:25:47;2.70;;;1.17;;
15385;SDS011;7791;47.246;9.648;2022-10-03T12:28:17;1.70;;;1.00;;
15385;SDS011;7791;47.246;9.648;2022-10-03T12:30:47;1.60;;;1.10;;
15385;SDS011;7791;47.246;9.648;2022-10-03T12:33:22;1.40;;;1.03;;
15385;SDS011;7791;47.246;9.648;2022-10-03T12:36:01;1.50;;;1.07;;
15385;SDS011;7791;47.246;9.648;2022-10-03T12:38:38;2.23;;;0.90;;
15385;SDS011;7791;47.246;9.648;2022-10-03T12:41:34;2.80;;;1.07;;
15385;SDS011;7791;47.246;9.648;2022-10-03T12:44:15;1.20;;;0.80;;
15385;SDS011;7791;47.246;9.648;2022-10-03T12:46:53;2.10;;;0.90;;
15385;SDS011;7791;47.246;9.648;2022-10-03T12:49:30;2.97;;;0.83;;
15385;SDS011;7791;47.246;9.648;2022-10-03T12:52:08;1.60;;;1.17;;
15385;SDS011;7791;47.246;9.648;2022-10-03T12:54:44;1.33;;;0.77;;
15385;SDS011;7791;47.246;9.648;2022-10-03T12:57:25;2.20;;;0.80;;
15385;SDS011;7791;47.246;9.648;2022-10-03T13:00:13;1.40;;;0.93;;
15385;SDS011;7791;47.246;9.648;2022-10-03T13:02:45;2.43;;;0.90;;
15385;SDS011;7791;47.246;9.648;2022-10-03T13:05:26;1.03;;;0.70;;
15385;SDS011;7791;47.246;9.648;2022-10-03T13:07:57;1.90;;;0.80;;
15385;SDS011;7791;47.246;9.648;2022-10-03T13:10:31;2.47;;;0.90;;
15385;SDS011;7791;47.246;9.648;2022-10-03T13:13:09;2.70;;;1.10;;
15385;SDS011;7791;47.246;9.648;2022-10-03T13:18:43;1.43;;;0.73;;
15385;SDS011;7791;47.246;9.648;2022-10-03T13:21:14;1.10;;;0.80;;
15385;SDS011;7791;47.246;9.648;2022-10-03T13:23:44;1.10;;;0.73;;
15385;SDS011;7791;47.246;9.648;2022-10-03T13:26:17;1.93;;;0.80;;
15385;SDS011;7791;47.246;9.648;2022-10-03T13:31:44;1.27;;;0.90;;
15385;SDS011;7791;47.246;9.648;2022-10-03T13:34:29;2.73;;;0.90;;
15385;SDS011;7791;47.246;9.648;2022-10-03T13:36:58;3.17;;;1.03;;
15385;SDS011;7791;47.246;9.648;2022-10-03T13:39:34;1.97;;;1.10;;
15385;SDS011;7791;47.246;9.648;2022-10-03T13:42:10;1.70;;;0.80;;
15385;SDS011;7791;47.246;9.648;2022-10-03T13:44:44;1.70;;;0.90;;
15385;SDS011;7791;47.246;9.648;2022-10-03T13:47:17;1.77;;;0.90;;
15385;SDS011;7791;47.246;9.648;2022-10-03T13:49:51;1.77;;;1.00;;
15385;SDS011;7791;47.246;9.648;2022-10-03T13:52:22;2.27;;;0.77;;
15385;SDS011;7791;47.246;9.648;2022-10-03T13:55:09;3.37;;;1.10;;
15385;SDS011;7791;47.246;9.648;2022-10-03T13:57:45;3.70;;;1.30;;
15385;SDS011;7791;47.246;9.648;2022-10-03T14:00:31;1.77;;;1.00;;
15385;SDS011;7791;47.246;9.648;2022-10-03T14:03:09;2.23;;;0.90;;
15385;SDS011;7791;47.246;9.648;2022-10-03T14:05:56;3.73;;;1.20;;
15385;SDS011;7791;47.246;9.648;2022-10-03T14:11:33;2.80;;;1.30;;
15385;SDS011;7791;47.246;9.648;2022-10-03T14:14:11;2.60;;;0.90;;
15385;SDS011;7791;47.246;9.648;2022-10-03T14:17:03;1.73;;;0.90;;
15385;SDS011;7791;47.246;9.648;2022-10-03T14:19:37;3.00;;;1.00;;
15385;SDS011;7791;47.246;9.648;2022-10-03T14:25:11;2.70;;;1.10;;
15385;SDS011;7791;47.246;9.648;2022-10-03T14:27:53;3.07;;;1.10;;
15385;SDS011;7791;47.246;9.648;2022-10-03T14:30:23;1.60;;;0.80;;
15385;SDS011;7791;47.246;9.648;2022-10-03T14:33:06;2.80;;;0.90;;
15385;SDS011;7791;47.246;9.648;2022-10-03T14:35:42;1.73;;;0.80;;
15385;SDS011;7791;47.246;9.648;2022-10-03T14:38:25;2.20;;;1.10;;
15385;SDS011;7791;47.246;9.648;2022-10-03T14:41:03;1.40;;;0.70;;
15385;SDS011;7791;47.246;9.648;2022-10-03T14:43:32;1.97;;;0.90;;
15385;SDS011;7791;47.246;9.648;2022-10-03T14:46:04;1.30;;;0.90;;
15385;SDS011;7791;47.246;9.648;2022-10-03T14:48:33;3.60;;;1.00;;
15385;SDS011;7791;47.246;9.648;2022-10-03T14:51:07;1.20;;;0.90;;
15385;SDS011;7791;47.246;9.648;2022-10-03T14:53:39;2.13;;;0.90;;
15385;SDS011;7791;47.246;9.648;2022-10-03T14:56:15;1.37;;;0.83;;
15385;SDS011;7791;47.246;9.648;2022-10-03T14:58:45;1.10;;;0.70;;
15385;SDS011;7791;47.246;9.648;2022-10-03T15:01:14;1.10;;;0.80;;
15385;SDS011;7791;47.246;9.648;2022-10-03T15:03:43;1.23;;;1.07;;
15385;SDS011;7791;47.246;9.648;2022-10-03T15:06:30;2.60;;;0.90;;
15385;SDS011;7791;47.246;9.648;2022-10-03T15:08:58;2.43;;;0.80;;
15385;SDS011;7791;47.246;9.648;2022-10-03T15:11:31;2.10;;;0.80;;
15385;SDS011;7791;47.246;9.648;2022-10-03T15:13:59;2.37;;;0.80;;
15385;SDS011;7791;47.246;9.648;2022-10-03T15:16:27;1.07;;;0.70;;
15385;SDS011;7791;47.246;9.648;2022-10-03T15:18:59;2.73;;;1.00;;
15385;SDS011;7791;47.246;9.648;2022-10-03T15:21:29;1.50;;;0.93;;
15385;SDS011;7791;47.246;9.648;2022-10-03T15:23:56;3.13;;;0.93;;
15385;SDS011;7791;47.246;9.648;2022-10-03T15:26:25;1.27;;;0.90;;
15385;SDS011;7791;47.246;9.648;2022-10-03T15:28:54;2.73;;;0.80;;
15385;SDS011;7791;47.246;9.648;2022-10-03T15:31:29;2.27;;;1.00;;
15385;SDS011;7791;47.246;9.648;2022-10-03T15:33:59;1.37;;;0.90;;
15385;SDS011;7791;47.246;9.648;2022-10-03T15:36:30;2.47;;;1.10;;
15385;SDS011;7791;47.246;9.648;2022-10-03T15:39:00;1.10;;;0.90;;
15385;SDS011;7791;47.246;9.648;2022-10-03T15:41:30;4.63;;;1.20;;
15385;SDS011;7791;47.246;9.648;2022-10-03T15:44:00;2.23;;;0.90;;
15385;SDS011;7791;47.246;9.648;2022-10-03T15:46:32;2.77;;;0.93;;
15385;SDS011;7791;47.246;9.648;2022-10-03T15:49:04;1.50;;;1.10;;
15385;SDS011;7791;47.246;9.648;2022-10-03T15:51:32;2.10;;;1.20;;
15385;SDS011;7791;47.246;9.648;2022-10-03T15:54:00;2.57;;;1.30;;
15385;SDS011;7791;47.246;9.648;2022-10-03T15:56:31;2.83;;;1.30;;
15385;SDS011;7791;47.246;9.648;2022-10-03T15:59:04;3.03;;;1.17;;
15385;SDS011;7791;47.246;9.648;2022-10-03T16:01:32;2.97;;;1.47;;
15385;SDS011;7791;47.246;9.648;2022-10-03T16:04:05;3.77;;;1.63;;
15385;SDS011;7791;47.246;9.648;2022-10-03T16:06:38;2.23;;;1.60;;
15385;SDS011;7791;47.246;9.648;2022-10-03T16:09:12;1.90;;;1.20;;
15385;SDS011;7791;47.246;9.648;2022-10-03T16:11:44;3.73;;;1.53;;
15385;SDS011;7791;47.246;9.648;2022-10-03T16:14:23;2.93;;;1.60;;
15385;SDS011;7791;47.246;9.648;2022-10-03T16:16:53;6.23;;;1.53;;
15385;SDS011;7791;47.246;9.648;2022-10-03T16:19:27;5.07;;;4.47;;
15385;SDS011;7791;47.246;9.648;2022-10-03T16:22:03;2.00;;;1.13;;
15385;SDS011;7791;47.246;9.648;2022-10-03T16:24:39;2.83;;;1.20;;
15385;SDS011;7791;47.246;9.648;2022-10-03T16:27:12;2.73;;;1.23;;
15385;SDS011;7791;47.246;9.648;2022-10-03T16:29:42;3.97;;;1.20;;
15385;SDS011;7791;47.246;9.648;2022-10-03T16:32:15;3.43;;;1.23;;
15385;SDS011;7791;47.246;9.648;2022-10-03T16:34:45;3.23;;;1.40;;
15385;SDS011;7791;47.246;9.648;2022-10-03T16:37:18;2.10;;;1.20;;
15385;SDS011;7791;47.246;9.648;2022-10-03T16:39:51;3.27;;;1.10;;
15385;SDS011;7791;47.246;9.648;2022-10-03T16:42:23;3.43;;;2.90;;
15385;SDS011;7791;47.246;9.648;2022-10-03T16:44:51;3.60;;;1.40;;
15385;SDS011;7791;47.246;9.648;2022-10-03T16:47:18;3.20;;;1.43;;
15385;SDS011;7791;47.246;9.648;2022-10-03T16:49:59;1.60;;;1.30;;
15385;SDS011;7791;47.246;9.648;2022-10-03T16:52:28;2.53;;;1.80;;
15385;SDS011;7791;47.246;9.648;2022-10-03T16:54:58;2.87;;;1.50;;
15385;SDS011;7791;47.246;9.648;2022-10-03T16:57:30;3.13;;;1.60;;
15385;SDS011;7791;47.246;9.648;2022-10-03T17:00:04;3.50;;;1.60;;
15385;SDS011;7791;47.246;9.648;2022-10-03T17:02:40;2.27;;;1.50;;
15385;SDS011;7791;47.246;9.648;2022-10-03T17:05:11;4.27;;;1.27;;
15385;SDS011;7791;47.246;9.648;2022-10-03T17:07:38;1.80;;;1.20;;
15385;SDS011;7791;47.246;9.648;2022-10-03T17:10:19;5.00;;;1.90;;
15385;SDS011;7791;47.246;9.648;2022-10-03T17:12:56;8.00;;;1.87;;
15385;SDS011;7791;47.246;9.648;2022-10-03T17:15:26;3.60;;;1.67;;
15385;SDS011;7791;47.246;9.648;2022-10-03T17:17:55;1.93;;;1.57;;
15385;SDS011;7791;47.246;9.648;2022-10-03T17:20:32;4.10;;;1.80;;
15385;SDS011;7791;47.246;9.648;2022-10-03T17:23:05;2.80;;;1.60;;
15385;SDS011;7791;47.246;9.648;2022-10-03T17:25:40;8.63;;;3.17;;
15385;SDS011;7791;47.246;9.648;2022-10-03T17:28:13;7.17;;;2.93;;
15385;SDS011;7791;47.246;9.648;2022-10-03T17:30:49;4.73;;;2.70;;
15385;SDS011;7791;47.246;9.648;2022-10-03T17:33:20;3.47;;;2.47;;
15385;SDS011;7791;47.246;9.648;2022-10-03T17:54:16;6.20;;;2.17;;
15385;SDS011;7791;47.246;9.648;2022-10-03T17:56:48;7.20;;;2.40;;
15385;SDS011;7791;47.246;9.648;2022-10-03T17:59:18;5.03;;;2.60;;
15385;SDS011;7791;47.246;9.648;2022-10-03T18:01:51;5.50;;;2.17;;
15385;SDS011;7791;47.246;9.648;2022-10-03T18:04:20;2.53;;;1.93;;
15385;SDS011;7791;47.246;9.648;2022-10-03T18:07:05;3.23;;;2.20;;
15385;SDS011;7791;47.246;9.648;2022-10-03T18:09:41;4.67;;;2.10;;
15385;SDS011;7791;47.246;9.648;2022-10-03T18:12:12;6.40;;;2.30;;
15385;SDS011;7791;47.246;9.648;2022-10-03T18:14:45;5.30;;;2.40;;
15385;SDS011;7791;47.246;9.648;2022-10-03T18:17:26;5.13;;;2.10;;
15385;SDS011;7791;47.246;9.648;2022-10-03T18:20:07;6.00;;;2.37;;
15385;SDS011;7791;47.246;9.648;2022-10-03T18:22:46;3.60;;;2.33;;
15385;SDS011;7791;47.246;9.648;2022-10-03T18:25:15;6.67;;;2.50;;
15385;SDS011;7791;47.246;9.648;2022-10-03T18:27:55;6.23;;;2.50;;
15385;SDS011;7791;47.246;9.648;2022-10-03T18:30:31;3.23;;;2.40;;
15385;SDS011;7791;47.246;9.648;2022-10-03T18:32:59;3.83;;;2.23;;
15385;SDS011;7791;47.246;9.648;2022-10-03T18:35:27;6.57;;;3.83;;
15385;SDS011;7791;47.246;9.648;2022-10-03T18:38:00;7.57;;;3.80;;
15385;SDS011;7791;47.246;9.648;2022-10-03T18:41:06;7.77;;;3.30;;
15385;SDS011;7791;47.246;9.648;2022-10-03T18:43:37;3.50;;;2.57;;
15385;SDS011;7791;47.246;9.648;2022-10-03T18:46:14;6.37;;;3.00;;
15385;SDS011;7791;47.246;9.648;2022-10-03T18:48:59;6.47;;;2.67;;
15385;SDS011;7791;47.246;9.648;2022-10-03T18:51:29;4.30;;;2.87;;
15385;SDS011;7791;47.246;9.648;2022-10-03T18:53:58;4.07;;;2.53;;
15385;SDS011;7791;47.246;9.648;2022-10-03T18:56:29;6.77;;;3.00;;
15385;SDS011;7791;47.246;9.648;2022-10-03T18:59:02;4.10;;;2.37;;
15385;SDS011;7791;47.246;9.648;2022-10-03T19:01:37;5.83;;;2.67;;
15385;SDS011;7791;47.246;9.648;2022-10-03T19:04:08;8.47;;;3.27;;
15385;SDS011;7791;47.246;9.648;2022-10-03T19:06:40;8.20;;;4.13;;
15385;SDS011;7791;47.246;9.648;2022-10-03T19:09:12;7.77;;;3.50;;
15385;SDS011;7791;47.246;9.648;2022-10-03T19:11:44;7.13;;;4.00;;
15385;SDS011;7791;47.246;9.648;2022-10-03T19:14:15;4.63;;;3.37;;
15385;SDS011;7791;47.246;9.648;2022-10-03T19:19:43;8.17;;;3.50;;
15385;SDS011;7791;47.246;9.648;2022-10-03T19:22:16;7.80;;;3.57;;
15385;SDS011;7791;47.246;9.648;2022-10-03T19:24:48;7.67;;;3.53;;
15385;SDS011;7791;47.246;9.648;2022-10-03T19:27:18;7.53;;;3.73;;
15385;SDS011;7791;47.246;9.648;2022-10-03T19:29:48;5.63;;;3.30;;
15385;SDS011;7791;47.246;9.648;2022-10-03T19:32:18;6.07;;;3.17;;
15385;SDS011;7791;47.246;9.648;2022-10-03T19:34:49;3.90;;;2.90;;
15385;SDS011;7791;47.246;9.648;2022-10-03T19:37:27;6.70;;;3.30;;
15385;SDS011;7791;47.246;9.648;2022-10-03T19:39:58;6.17;;;3.13;;
15385;SDS011;7791;47.246;9.648;2022-10-03T19:42:28;6.93;;;3.07;;
15385;SDS011;7791;47.246;9.648;2022-10-03T19:45:01;5.03;;;3.10;;
15385;SDS011;7791;47.246;9.648;2022-10-03T19:47:28;3.87;;;2.90;;
15385;SDS011;7791;47.246;9.648;2022-10-03T19:50:00;3.63;;;2.60;;
15385;SDS011;7791;47.246;9.648;2022-10-03T19:52:31;3.93;;;2.50;;
15385;SDS011;7791;47.246;9.648;2022-10-03T19:55:02;6.00;;;2.90;;
15385;SDS011;7791;47.246;9.648;2022-10-03T19:57:40;5.17;;;2.70;;
15385;SDS011;7791;47.246;9.648;2022-10-03T20:00:19;4.23;;;2.73;;
15385;SDS011;7791;47.246;9.648;2022-10-03T20:02:53;5.77;;;2.80;;
15385;SDS011;7791;47.246;9.648;2022-10-03T20:05:22;4.63;;;2.80;;
15385;SDS011;7791;47.246;9.648;2022-10-03T20:07:51;5.27;;;2.80;;
15385;SDS011;7791;47.246;9.648;2022-10-03T20:10:42;4.47;;;3.40;;
15385;SDS011;7791;47.246;9.648;2022-10-03T20:13:18;6.97;;;3.90;;
15385;SDS011;7791;47.246;9.648;2022-10-03T20:15:44;5.70;;;4.00;;
15385;SDS011;7791;47.246;9.648;2022-10-03T20:18:16;11.93;;;3.63;;
15385;SDS011;7791;47.246;9.648;2022-10-03T20:20:46;7.60;;;3.13;;
15385;SDS011;7791;47.246;9.648;2022-10-03T20:23:14;4.60;;;3.10;;
15385;SDS011;7791;47.246;9.648;2022-10-03T20:25:42;5.97;;;3.30;;